createdAt,value
2024-02-23T00:01:13.971Z,96286.56
2024-02-23T00:03:41.470Z,96287.81
2024-02-23T00:06:10.241Z,96277.25
2024-02-23T00:08:38.991Z,96285.03
2024-02-23T00:11:07.289Z,96274.59
2024-02-23T00:13:34.737Z,96262.25
2024-02-23T00:16:01.979Z,96274.19
2024-02-23T00:18:29.306Z,96260.28
2024-02-23T00:20:57.763Z,96268.91
2024-02-23T00:23:25.068Z,96260.16
2024-02-23T00:25:52.743Z,96262.25
2024-02-23T00:28:21.065Z,96260.16
2024-02-23T00:30:48.644Z,96258.34
2024-02-23T00:33:16.312Z,96251.22
2024-02-23T00:35:43.639Z,96256.94
2024-02-23T00:38:10.654Z,96264.72
2024-02-23T00:40:38.131Z,96265.00
2024-02-23T00:43:06.090Z,96264.88
2024-02-23T00:45:33.356Z,96270.88
2024-02-23T00:48:00.732Z,96283.66
2024-02-23T00:50:28.377Z,96285.47
2024-02-23T00:52:55.766Z,96285.34
2024-02-23T00:55:23.025Z,96284.06
2024-02-23T00:57:50.345Z,96279.09
2024-02-23T01:00:17.933Z,96292.88
2024-02-23T01:02:48.472Z,96283.13
2024-02-23T01:05:15.848Z,96289.78
2024-02-23T01:07:42.840Z,96296.31
2024-02-23T01:10:10.829Z,96298.69
2024-02-23T01:12:37.878Z,96303.28
2024-02-23T01:15:06.338Z,96310.38
2024-02-23T01:17:33.612Z,96311.38
2024-02-23T01:20:02.399Z,96307.59
2024-02-23T01:22:30.209Z,96317.22
2024-02-23T01:24:57.957Z,96326.38
2024-02-23T01:27:25.008Z,96329.75
2024-02-23T01:29:52.344Z,96330.44
2024-02-23T01:32:19.412Z,96336.00
2024-02-23T01:34:46.702Z,96352.56
2024-02-23T01:37:13.663Z,96356.31
2024-02-23T01:39:40.880Z,96365.00
2024-02-23T01:42:07.988Z,96370.69
2024-02-23T01:44:35.272Z,96377.66
2024-02-23T01:47:02.670Z,96376.69
2024-02-23T01:49:34.798Z,96366.78
2024-02-23T01:52:03.264Z,96377.91
2024-02-23T01:54:32.010Z,96384.34
2024-02-23T01:57:08.326Z,96384.91
2024-02-23T01:59:47.161Z,96389.91
2024-02-23T02:02:14.349Z,96394.94
2024-02-23T02:04:41.677Z,96394.50
2024-02-23T02:07:08.758Z,96402.59
2024-02-23T02:09:36.621Z,96399.22
2024-02-23T02:12:03.990Z,96399.22
2024-02-23T02:14:32.636Z,96394.47
2024-02-23T02:16:59.687Z,96399.63
2024-02-23T02:19:27.087Z,96401.59
2024-02-23T02:21:54.266Z,96408.00
2024-02-23T02:24:22.273Z,96409.97
2024-02-23T02:26:51.641Z,96416.75
2024-02-23T02:29:18.976Z,96418.97
2024-02-23T02:31:45.933Z,96424.41
2024-02-23T02:34:15.853Z,96424.97
2024-02-23T02:36:42.913Z,96424.84
2024-02-23T02:39:11.679Z,96440.00
2024-02-23T02:41:38.840Z,96445.44
2024-02-23T02:44:06.065Z,96451.41
2024-02-23T02:46:33.172Z,96444.88
2024-02-23T02:49:00.530Z,96448.34
2024-02-23T02:51:29.451Z,96446.69
2024-02-23T02:53:57.150Z,96460.44
2024-02-23T02:56:24.625Z,96457.66
2024-02-23T02:58:52.113Z,96462.97
2024-02-23T03:01:19.240Z,96470.47
2024-02-23T03:03:47.061Z,96468.59
2024-02-23T03:06:14.148Z,96471.69
2024-02-23T03:08:43.887Z,96468.63
2024-02-23T03:11:11.135Z,96480.22
2024-02-23T03:13:38.493Z,96475.97
2024-02-23T03:16:05.583Z,96486.16
2024-02-23T03:18:32.902Z,96490.03
2024-02-23T03:20:59.925Z,96494.16
2024-02-23T03:23:27.158Z,96487.53
2024-02-23T03:25:54.187Z,96492.94
2024-02-23T03:28:21.444Z,96509.63
2024-02-23T03:30:48.470Z,96517.81
2024-02-23T03:33:15.767Z,96516.56
2024-02-23T03:35:42.897Z,96517.97
2024-02-23T03:38:10.378Z,96520.88
2024-02-23T03:40:37.471Z,96527.97
2024-02-23T03:43:05.197Z,96543.00
2024-02-23T03:45:32.091Z,96543.25
2024-02-23T03:48:00.983Z,96540.41
2024-02-23T03:50:28.110Z,96556.16
2024-02-23T03:52:55.480Z,96561.09
2024-02-23T03:55:23.261Z,96562.94
2024-02-23T03:57:50.533Z,96566.66
2024-02-23T04:00:18.865Z,96571.69
2024-02-23T04:02:46.151Z,96576.13
2024-02-23T04:05:13.888Z,96580.53
2024-02-23T04:07:41.248Z,96578.13
2024-02-23T04:10:09.184Z,96590.25
2024-02-23T04:12:36.490Z,96596.25
2024-02-23T04:15:03.746Z,96592.28
2024-02-23T04:17:31.644Z,96598.94
2024-02-23T04:20:04.645Z,96600.75
2024-02-23T04:22:32.004Z,96613.63
2024-02-23T04:24:59.039Z,96617.47
2024-02-23T04:27:26.247Z,96612.91
2024-02-23T04:29:53.216Z,96613.75
2024-02-23T04:32:20.365Z,96619.03
2024-02-23T04:34:47.390Z,96626.13
2024-02-23T04:37:14.733Z,96632.97
2024-02-23T04:39:43.029Z,96635.38
2024-02-23T04:42:13.191Z,96635.28
2024-02-23T04:44:44.520Z,96644.06
2024-02-23T04:47:11.820Z,96655.06
2024-02-23T04:49:38.867Z,96661.94
2024-02-23T04:52:09.854Z,96664.44
2024-02-23T04:54:36.751Z,96672.38
2024-02-23T04:57:04.256Z,96684.72
2024-02-23T04:59:33.650Z,96688.22
2024-02-23T05:02:01.086Z,96694.09
2024-02-23T05:04:28.113Z,96693.16
2024-02-23T05:06:55.417Z,96700.97
2024-02-23T05:09:22.332Z,96705.75
2024-02-23T05:11:49.683Z,96708.88
2024-02-23T05:14:16.861Z,96702.19
2024-02-23T05:16:44.299Z,96708.16
2024-02-23T05:19:11.407Z,96718.59
2024-02-23T05:21:38.611Z,96710.69
2024-02-23T05:24:07.211Z,96705.53
2024-02-23T05:26:34.625Z,96714.91
2024-02-23T05:29:01.706Z,96724.84
2024-02-23T05:31:54.063Z,96732.91
2024-02-23T05:34:21.968Z,96734.78
2024-02-23T05:36:49.932Z,96735.06
2024-02-23T05:39:18.410Z,96739.59
2024-02-23T05:41:45.863Z,96739.38
2024-02-23T05:44:14.826Z,96748.09
2024-02-23T05:46:44.064Z,96759.25
2024-02-23T05:49:11.314Z,96747.75
2024-02-23T05:51:38.695Z,96764.41
2024-02-23T05:54:05.935Z,96767.75
2024-02-23T05:56:33.205Z,96768.72
2024-02-23T05:59:00.222Z,96773.03
2024-02-23T06:01:27.455Z,96777.38
2024-02-23T06:03:56.226Z,96787.53
2024-02-23T06:06:24.008Z,96787.88
2024-02-23T06:08:52.181Z,96787.88
2024-02-23T06:11:19.527Z,96789.44
2024-02-23T06:13:46.473Z,96805.59
2024-02-23T06:16:14.109Z,96793.09
2024-02-23T06:18:43.985Z,96797.16
2024-02-23T06:21:19.290Z,96800.75
2024-02-23T06:23:46.447Z,96801.72
2024-02-23T06:26:14.123Z,96807.72
2024-02-23T06:28:44.462Z,96813.22
2024-02-23T06:31:11.875Z,96821.84
2024-02-23T06:33:39.088Z,96816.28
2024-02-23T06:36:06.970Z,96822.16
2024-02-23T06:38:34.146Z,96817.66
2024-02-23T06:41:01.753Z,96823.38
2024-02-23T06:43:28.899Z,96827.19
2024-02-23T06:45:56.383Z,96827.91
2024-02-23T06:48:30.488Z,96829.56
2024-02-23T06:50:58.976Z,96834.84
2024-02-23T06:53:26.085Z,96836.66
2024-02-23T06:55:53.634Z,96835.81
2024-02-23T06:58:20.680Z,96834.13
2024-02-23T07:00:48.172Z,96831.97
2024-02-23T07:03:17.911Z,96843.44
2024-02-23T07:05:46.594Z,96861.50
2024-02-23T07:08:14.112Z,96862.03
2024-02-23T07:10:41.717Z,96873.22
2024-02-23T07:13:09.045Z,96873.03
2024-02-23T07:15:39.895Z,96882.50
2024-02-23T07:18:10.085Z,96881.78
2024-02-23T07:20:38.558Z,96872.31
2024-02-23T07:23:07.261Z,96870.28
2024-02-23T07:25:34.719Z,96865.75
2024-02-23T07:28:01.982Z,96864.00
2024-02-23T07:30:29.793Z,96871.25
2024-02-23T07:32:57.147Z,96877.03
2024-02-23T07:35:24.555Z,96884.19
2024-02-23T07:37:52.173Z,96903.38
2024-02-23T07:40:22.418Z,96912.47
2024-02-23T07:42:50.081Z,96906.59
2024-02-23T07:45:17.531Z,96896.22
2024-02-23T07:47:44.717Z,96897.75
2024-02-23T07:50:14.168Z,96901.84
2024-02-23T07:52:41.275Z,96909.72
2024-02-23T07:55:09.318Z,96914.06
2024-02-23T07:57:36.310Z,96907.31
2024-02-23T08:00:05.376Z,96912.38
2024-02-23T08:02:32.649Z,96909.94
2024-02-23T08:05:00.187Z,96915.44
2024-02-23T08:07:29.574Z,96920.16
2024-02-23T08:09:56.885Z,96924.25
2024-02-23T08:12:24.314Z,96932.16
2024-02-23T08:14:54.449Z,96941.56
2024-02-23T08:17:22.062Z,96942.28
2024-02-23T08:19:49.411Z,96955.25
2024-02-23T08:22:16.421Z,96959.69
2024-02-23T08:24:43.835Z,96959.78
2024-02-23T08:27:10.729Z,96971.16
2024-02-23T08:29:39.981Z,96961.25
2024-02-23T08:32:07.678Z,96957.06
2024-02-23T08:34:35.395Z,96954.72
2024-02-23T08:37:02.951Z,96954.84
2024-02-23T08:39:30.244Z,96949.16
2024-02-23T08:41:57.353Z,96959.59
2024-02-23T08:44:25.038Z,96964.66
2024-02-23T08:46:51.979Z,96965.28
2024-02-23T08:49:19.560Z,96970.34
2024-02-23T08:51:46.657Z,96957.38
2024-02-23T08:54:14.259Z,96954.94
2024-02-23T08:56:43.921Z,96949.56
2024-02-23T08:59:11.630Z,96957.78
2024-02-23T09:01:38.644Z,96958.50
2024-02-23T09:04:08.376Z,96957.56
2024-02-23T09:06:39.103Z,96972.97
2024-02-23T09:09:07.387Z,96977.38
2024-02-23T09:11:35.122Z,96986.97
2024-02-23T09:14:02.734Z,96983.16
2024-02-23T09:16:29.791Z,96997.94
2024-02-23T09:18:57.039Z,97000.38
2024-02-23T09:21:24.026Z,96999.50
2024-02-23T09:23:51.436Z,96990.13
2024-02-23T09:26:19.276Z,97002.66
2024-02-23T09:28:46.640Z,97010.13
2024-02-23T09:31:13.827Z,97013.50
2024-02-23T09:33:41.996Z,97021.63
2024-02-23T09:36:10.251Z,97018.44
2024-02-23T09:38:37.549Z,97014.31
2024-02-23T09:41:05.390Z,97000.72
2024-02-23T09:43:35.030Z,96987.53
2024-02-23T09:46:02.422Z,96980.75
2024-02-23T09:48:30.963Z,96989.06
2024-02-23T09:51:00.273Z,96972.44
2024-02-23T09:53:27.935Z,96961.09
2024-02-23T09:55:56.853Z,96963.91
2024-02-23T09:58:25.280Z,96961.16
2024-02-23T10:00:52.489Z,96965.91
2024-02-23T10:03:20.587Z,96975.25
2024-02-23T10:05:47.986Z,96975.25
2024-02-23T10:08:15.422Z,96979.72
2024-02-23T10:10:42.898Z,96977.69
2024-02-23T10:13:10.319Z,96979.88
2024-02-23T10:15:37.385Z,96973.56
2024-02-23T10:18:06.384Z,96979.34
2024-02-23T10:20:33.837Z,96985.88
2024-02-23T10:23:01.535Z,96990.94
2024-02-23T10:25:28.626Z,96997.16
2024-02-23T10:27:56.355Z,97003.84
2024-02-23T10:30:23.360Z,96999.63
2024-02-23T10:32:57.555Z,96986.25
2024-02-23T10:35:26.342Z,96984.59
2024-02-23T10:37:55.915Z,97012.78
2024-02-23T10:40:27.872Z,97011.63
2024-02-23T10:43:03.598Z,97037.69
2024-02-23T10:45:32.649Z,97045.91
2024-02-23T10:48:02.353Z,97044.56
2024-02-23T10:50:30.011Z,97048.19
2024-02-23T10:52:59.248Z,97044.06
2024-02-23T10:55:29.111Z,97051.44
2024-02-23T10:57:58.893Z,97050.38
2024-02-23T11:00:26.986Z,97052.72
2024-02-23T11:02:57.049Z,97063.56
2024-02-23T11:05:26.349Z,97074.44
2024-02-23T11:07:58.048Z,97069.19
2024-02-23T11:10:29.166Z,97071.38
2024-02-23T11:13:03.926Z,97069.03
2024-02-23T11:15:34.932Z,97067.97
2024-02-23T11:18:02.275Z,97081.19
2024-02-23T11:20:38.396Z,97087.38
2024-02-23T11:23:16.216Z,97083.81
2024-02-23T11:25:43.290Z,97097.72
2024-02-23T11:28:10.588Z,97088.22
2024-02-23T11:30:40.298Z,97081.19
2024-02-23T11:33:09.528Z,97082.13
2024-02-23T11:35:36.787Z,97073.38
2024-02-23T11:38:07.946Z,97069.75
2024-02-23T11:40:35.273Z,97077.34
2024-02-23T11:43:02.873Z,97079.06
2024-02-23T11:45:32.283Z,97066.06
2024-02-23T11:48:00.862Z,97064.16
2024-02-23T11:50:28.608Z,97064.56
2024-02-23T11:52:56.233Z,97057.50
2024-02-23T11:55:24.796Z,97052.00
2024-02-23T11:58:01.104Z,97055.38
2024-02-23T12:00:33.736Z,97057.88
2024-02-23T12:03:01.755Z,97064.66
2024-02-23T12:05:29.969Z,97054.22
2024-02-23T12:07:59.842Z,97063.94
2024-02-23T12:10:27.997Z,97056.00
2024-02-23T12:12:57.156Z,97054.53
2024-02-23T12:15:24.364Z,97045.56
2024-02-23T12:17:51.966Z,97041.13
2024-02-23T12:20:19.658Z,97034.75
2024-02-23T12:22:49.004Z,97033.59
2024-02-23T12:25:16.713Z,97036.13
2024-02-23T12:27:44.852Z,97043.88
2024-02-23T12:30:17.196Z,97033.19
2024-02-23T12:32:44.757Z,97044.47
2024-02-23T12:35:13.517Z,97048.19
2024-02-23T12:37:44.627Z,97047.34
2024-02-23T12:40:13.755Z,97056.84
2024-02-23T12:42:41.418Z,97057.34
2024-02-23T12:45:08.941Z,97065.78
2024-02-23T12:47:36.338Z,97065.88
2024-02-23T12:50:03.516Z,97064.19
2024-02-23T12:52:31.035Z,97061.03
2024-02-23T12:54:57.979Z,97056.75
2024-02-23T12:57:25.149Z,97057.56
2024-02-23T12:59:52.654Z,97061.78
2024-02-23T13:02:22.147Z,97060.94
2024-02-23T13:04:51.793Z,97057.75
2024-02-23T13:07:19.360Z,97059.09
2024-02-23T13:09:46.626Z,97048.53
2024-02-23T13:12:14.925Z,97039.19
2024-02-23T13:14:42.168Z,97047.63
2024-02-23T13:17:09.559Z,97046.34
2024-02-23T13:19:36.838Z,97048.88
2024-02-23T13:22:04.375Z,97039.66
2024-02-23T13:24:31.395Z,97044.78
2024-02-23T13:26:58.720Z,97040.75
2024-02-23T13:29:25.750Z,97033.22
2024-02-23T13:31:53.249Z,97045.09
2024-02-23T13:34:20.749Z,97036.69
2024-02-23T13:36:48.663Z,97041.91
2024-02-23T13:39:15.591Z,97042.06
2024-02-23T13:41:42.991Z,97031.72
2024-02-23T13:44:12.043Z,97027.19
2024-02-23T13:46:42.353Z,97028.97
2024-02-23T13:49:10.931Z,97035.13
2024-02-23T13:51:38.847Z,97026.22
2024-02-23T13:54:06.264Z,97023.19
2024-02-23T13:56:33.728Z,97029.88
2024-02-23T13:59:00.855Z,97030.81
2024-02-23T14:01:28.488Z,97035.38
2024-02-23T14:03:55.866Z,97034.53
2024-02-23T14:06:23.833Z,97035.16
2024-02-23T14:08:50.927Z,97039.41
2024-02-23T14:11:20.137Z,97023.41
2024-02-23T14:13:51.766Z,97022.59
2024-02-23T14:16:19.551Z,97022.34
2024-02-23T14:18:46.799Z,97029.19
2024-02-23T14:21:15.530Z,97020.31
2024-02-23T14:23:43.064Z,97022.03
2024-02-23T14:26:11.088Z,97015.66
2024-02-23T14:28:38.024Z,97010.38
2024-02-23T14:31:05.479Z,97004.75
2024-02-23T14:33:33.727Z,97003.16
2024-02-23T14:36:01.071Z,97008.69
2024-02-23T14:38:28.110Z,97015.16
2024-02-23T14:40:55.560Z,97018.13
2024-02-23T14:43:22.531Z,97027.13
2024-02-23T14:45:49.935Z,97024.94
2024-02-23T14:48:16.931Z,97019.88
2024-02-23T14:50:47.066Z,97015.91
2024-02-23T14:53:14.755Z,97017.69
2024-02-23T14:55:43.138Z,97026.19
2024-02-23T14:58:10.563Z,97025.34
2024-02-23T15:00:38.105Z,97026.75
2024-02-23T15:03:05.753Z,97020.50
2024-02-23T15:05:33.339Z,97010.31
2024-02-23T15:08:00.409Z,97022.88
2024-02-23T15:10:28.860Z,97022.25
2024-02-23T15:12:56.304Z,97025.97
2024-02-23T15:15:23.541Z,97020.59
2024-02-23T15:17:51.053Z,97022.34
2024-02-23T15:20:18.627Z,97013.59
2024-02-23T15:22:47.953Z,97009.16
2024-02-23T15:25:16.594Z,97003.88
2024-02-23T15:27:43.627Z,97005.59
2024-02-23T15:30:11.745Z,96998.59
2024-02-23T15:32:39.438Z,96994.31
2024-02-23T15:35:07.572Z,96987.31
2024-02-23T15:37:35.111Z,96982.03
2024-02-23T15:40:05.043Z,96982.78
2024-02-23T15:42:32.421Z,96980.94
2024-02-23T15:44:59.689Z,96979.63
2024-02-23T15:47:26.752Z,96999.69
2024-02-23T15:50:12.657Z,97025.97
2024-02-23T15:52:41.325Z,97025.47
2024-02-23T15:55:12.547Z,97004.34
2024-02-23T15:57:40.439Z,97004.34
2024-02-23T16:00:14.656Z,97001.00
2024-02-23T16:02:41.773Z,96994.13
2024-02-23T16:05:09.333Z,97003.09
2024-02-23T16:07:37.266Z,97002.38
2024-02-23T16:10:06.132Z,97023.59
2024-02-23T16:12:34.741Z,97028.13
2024-02-23T16:15:02.093Z,97032.47
2024-02-23T16:17:30.436Z,97032.69
2024-02-23T16:19:57.977Z,97028.34
2024-02-23T16:22:25.078Z,97024.06
2024-02-23T16:24:52.370Z,97030.28
2024-02-23T16:27:19.419Z,97037.69
2024-02-23T16:29:47.786Z,97050.03
2024-02-23T16:32:15.154Z,97050.25
2024-02-23T16:34:45.506Z,97059.22
2024-02-23T16:37:12.854Z,97064.63
2024-02-23T16:39:40.143Z,97068.19
2024-02-23T16:42:07.374Z,97060.38
2024-02-23T16:44:34.832Z,97064.84
2024-02-23T16:47:02.065Z,97052.59
2024-02-23T16:49:29.694Z,97051.84
2024-02-23T16:51:57.036Z,97043.94
2024-02-23T16:54:24.601Z,97045.97
2024-02-23T16:56:51.728Z,97046.78
2024-02-23T16:59:19.079Z,97053.88
2024-02-23T17:01:46.254Z,97053.00
2024-02-23T17:04:13.666Z,97058.19
2024-02-23T17:06:40.695Z,97056.41
2024-02-23T17:09:11.059Z,97052.91
2024-02-23T17:11:39.279Z,97040.56
2024-02-23T17:14:06.914Z,97045.84
2024-02-23T17:16:34.587Z,97042.34
2024-02-23T17:19:01.967Z,97054.81
2024-02-23T17:21:29.219Z,97053.00
2024-02-23T17:23:56.652Z,97042.81
2024-02-23T17:26:23.698Z,97041.00
2024-02-23T17:28:52.181Z,97041.94
2024-02-23T17:31:19.371Z,97041.44
2024-02-23T17:33:46.778Z,97047.66
2024-02-23T17:36:13.838Z,97057.25
2024-02-23T17:38:41.235Z,97054.50
2024-02-23T17:41:08.261Z,97059.06
2024-02-23T17:43:35.539Z,97060.84
2024-02-23T17:46:02.918Z,97059.16
2024-02-23T17:48:30.467Z,97070.53
2024-02-23T17:50:57.614Z,97057.34
2024-02-23T17:53:25.125Z,97040.69
2024-02-23T17:55:54.916Z,97061.06
2024-02-23T17:58:22.304Z,97053.16
2024-02-23T18:00:49.395Z,97042.72
2024-02-23T18:03:19.616Z,97032.16
2024-02-23T18:05:46.884Z,97043.53
2024-02-23T18:08:14.300Z,97033.88
2024-02-23T18:10:41.296Z,97034.81
2024-02-23T18:13:08.720Z,97032.28
2024-02-23T18:15:37.156Z,97048.41
2024-02-23T18:18:05.211Z,97039.13
2024-02-23T18:20:32.494Z,97049.69
2024-02-23T18:22:59.857Z,97050.31
2024-02-23T18:25:27.028Z,97043.38
2024-02-23T18:27:55.285Z,97036.72
2024-02-23T18:30:22.225Z,97039.66
2024-02-23T18:32:49.485Z,97036.13
2024-02-23T18:35:18.067Z,97029.03
2024-02-23T18:37:48.011Z,97018.94
2024-02-23T18:40:15.691Z,97022.69
2024-02-23T18:42:42.964Z,97030.16
2024-02-23T18:45:10.362Z,97035.63
2024-02-23T18:47:37.744Z,97030.69
2024-02-23T18:50:05.258Z,97035.19
2024-02-23T18:52:33.496Z,97034.25
2024-02-23T18:55:00.524Z,97025.63
2024-02-23T18:57:28.225Z,97032.56
2024-02-23T18:59:55.172Z,97027.09
2024-02-23T19:02:22.509Z,97034.25
2024-02-23T19:04:49.541Z,97034.25
2024-02-23T19:07:16.873Z,97038.50
2024-02-23T19:09:44.018Z,97041.34
2024-02-23T19:12:12.451Z,97054.50
2024-02-23T19:14:39.599Z,97049.34
2024-02-23T19:17:07.676Z,97048.91
2024-02-23T19:19:34.676Z,97053.00
2024-02-23T19:22:01.884Z,97042.91
2024-02-23T19:24:31.789Z,97041.84
2024-02-23T19:27:01.392Z,97034.50
2024-02-23T19:29:28.661Z,97040.38
2024-02-23T19:31:59.146Z,97038.50
2024-02-23T19:34:26.400Z,97031.56
2024-02-23T19:36:55.399Z,97034.50
2024-02-23T19:39:22.699Z,97035.53
2024-02-23T19:41:52.921Z,97034.16
2024-02-23T19:44:19.932Z,97043.22
2024-02-23T19:46:47.122Z,97044.66
2024-02-23T19:49:14.501Z,97040.22
2024-02-23T19:51:41.697Z,97020.97
2024-02-23T19:54:10.382Z,97028.91
2024-02-23T19:56:37.779Z,97009.88
2024-02-23T19:59:04.917Z,97014.72
2024-02-23T20:01:32.305Z,97005.00
2024-02-23T20:03:59.377Z,97004.91
2024-02-23T20:06:27.148Z,97004.25
2024-02-23T20:08:54.350Z,97000.56
2024-02-23T20:11:21.889Z,97013.69
2024-02-23T20:13:49.235Z,97010.13
2024-02-23T20:16:16.494Z,96999.81
2024-02-23T20:18:43.679Z,96997.91
2024-02-23T20:21:10.935Z,97001.00
2024-02-23T20:23:38.327Z,96995.00
2024-02-23T20:26:06.055Z,97011.91
2024-02-23T20:28:33.430Z,97003.19
2024-02-23T20:31:05.249Z,97006.66
2024-02-23T20:33:36.013Z,97007.31
2024-02-23T20:36:03.836Z,97008.97
2024-02-23T20:38:31.685Z,97014.03
2024-02-23T20:40:59.456Z,97016.59
2024-02-23T20:43:27.428Z,97023.63
2024-02-23T20:45:55.078Z,97013.41
2024-02-23T20:48:22.062Z,97017.59
2024-02-23T20:50:49.501Z,97009.53
2024-02-23T20:53:16.961Z,97018.56
2024-02-23T20:55:44.578Z,97012.25
2024-02-23T20:58:11.976Z,97016.22
2024-02-23T21:00:39.342Z,97019.50
2024-02-23T21:03:06.423Z,97020.97
2024-02-23T21:05:35.458Z,97023.50
2024-02-23T21:08:02.626Z,97015.31
2024-02-23T21:10:29.885Z,97010.44
2024-02-23T21:12:56.829Z,97012.97
2024-02-23T21:15:24.145Z,97015.41
2024-02-23T21:17:51.278Z,97013.91
2024-02-23T21:20:19.884Z,97020.22
2024-02-23T21:22:46.919Z,97015.34
2024-02-23T21:25:14.269Z,97006.91
2024-02-23T21:27:41.419Z,96999.44
2024-02-23T21:30:09.925Z,96999.81
2024-02-23T21:32:37.113Z,96986.22
2024-02-23T21:35:05.269Z,96991.78
2024-02-23T21:37:33.116Z,96986.81
2024-02-23T21:40:00.409Z,96982.78
2024-02-23T21:42:27.574Z,96991.63
2024-02-23T21:44:54.952Z,96995.38
2024-02-23T21:47:22.025Z,97009.78
2024-02-23T21:49:49.579Z,97016.16
2024-02-23T21:52:16.605Z,97008.34
2024-02-23T21:54:45.920Z,97004.16
2024-02-23T21:57:13.636Z,97013.56
2024-02-23T21:59:41.117Z,97008.84
2024-02-23T22:02:10.008Z,97019.56
2024-02-23T22:04:39.738Z,97013.72
2024-02-23T22:07:08.621Z,97004.13
2024-02-23T22:09:36.031Z,96999.81
2024-02-23T22:12:03.666Z,97007.34
2024-02-23T22:14:31.278Z,96995.13
2024-02-23T22:16:58.420Z,97002.19
2024-02-23T22:19:26.288Z,97013.81
2024-02-23T22:21:53.384Z,97010.31
2024-02-23T22:24:20.955Z,96992.13
2024-02-23T22:26:48.588Z,96992.59
2024-02-23T22:29:16.003Z,96994.13
2024-02-23T22:31:48.109Z,97008.00
2024-02-23T22:34:15.846Z,97008.81
2024-02-23T22:36:44.193Z,97010.72
2024-02-23T22:39:11.724Z,97020.38
2024-02-23T22:41:40.625Z,97022.16
2024-02-23T22:44:13.871Z,97012.22
2024-02-23T22:46:42.780Z,97009.94
2024-02-23T22:49:12.175Z,97006.22
2024-02-23T22:51:44.403Z,97012.28
2024-02-23T22:54:11.655Z,97013.25
2024-02-23T22:56:38.832Z,97007.22
2024-02-23T22:59:10.372Z,97003.66
2024-02-23T23:01:41.436Z,97021.47
2024-02-23T23:04:08.929Z,97030.19
2024-02-23T23:06:36.745Z,97031.81
2024-02-23T23:09:09.966Z,97033.66
2024-02-23T23:11:42.761Z,97028.41
2024-02-23T23:14:10.523Z,97034.63
2024-02-23T23:16:37.945Z,97029.38
2024-02-23T23:19:05.782Z,97039.94
2024-02-23T23:21:32.888Z,97047.75
2024-02-23T23:24:00.590Z,97043.41
2024-02-23T23:26:27.704Z,97040.63
2024-02-23T23:28:56.237Z,97040.63
2024-02-23T23:31:23.958Z,97041.44
2024-02-23T23:33:54.624Z,97030.94
2024-02-23T23:36:21.964Z,97029.28
2024-02-23T23:38:49.597Z,97032.72
2024-02-23T23:41:16.614Z,97036.28
2024-02-23T23:43:43.950Z,97036.56
2024-02-23T23:46:10.885Z,97046.22
2024-02-23T23:48:38.162Z,97050.06
2024-02-23T23:51:05.773Z,97058.97
2024-02-23T23:53:33.069Z,97055.66
2024-02-23T23:56:00.475Z,97055.88
2024-02-23T23:58:28.040Z,97049.84
